sensor_id;sensor_type;location;lat;lon;timestamp;temperature;humidity
17639;DHT22;8938;53.546;9.954;2023-01-06T00:01:22;11.00;99.90
17639;DHT22;8938;53.546;9.954;2023-01-06T00:03:49;11.00;99.90
17639;DHT22;8938;53.546;9.954;2023-01-06T00:06:16;11.10;99.90
17639;DHT22;8938;53.546;9.954;2023-01-06T00:08:41;11.00;99.90
17639;DHT22;8938;53.546;9.954;2023-01-06T00:11:09;11.10;99.90
17639;DHT22;8938;53.546;9.954;2023-01-06T00:13:35;11.20;99.90
17639;DHT22;8938;53.546;9.954;2023-01-06T00:16:09;11.10;99.90
17639;DHT22;8938;53.546;9.954;2023-01-06T00:18:35;11.20;99.90
17639;DHT22;8938;53.546;9.954;2023-01-06T00:21:01;11.20;99.90
17639;DHT22;8938;53.546;9.954;2023-01-06T00:23:28;11.30;99.90
17639;DHT22;8938;53.546;9.954;2023-01-06T00:25:53;11.30;99.90
17639;DHT22;8938;53.546;9.954;2023-01-06T00:28:19;11.30;99.90
17639;DHT22;8938;53.546;9.954;2023-01-06T00:30:45;11.30;99.90
17639;DHT22;8938;53.546;9.954;2023-01-06T00:33:10;11.40;99.90
17639;DHT22;8938;53.546;9.954;2023-01-06T00:35:36;11.30;99.90
17639;DHT22;8938;53.546;9.954;2023-01-06T00:38:01;11.30;99.90
17639;DHT22;8938;53.546;9.954;2023-01-06T00:40:27;11.30;99.90
17639;DHT22;8938;53.546;9.954;2023-01-06T00:42:52;11.20;99.90
17639;DHT22;8938;53.546;9.954;2023-01-06T00:45:18;11.20;99.90
17639;DHT22;8938;53.546;9.954;2023-01-06T00:47:43;11.20;99.90
17639;DHT22;8938;53.546;9.954;2023-01-06T00:50:09;11.20;99.90
17639;DHT22;8938;53.546;9.954;2023-01-06T00:52:35;11.30;99.90
17639;DHT22;8938;53.546;9.954;2023-01-06T00:55:00;11.30;99.90
17639;DHT22;8938;53.546;9.954;2023-01-06T00:57:26;11.20;99.90
17639;DHT22;8938;53.546;9.954;2023-01-06T00:59:52;11.20;99.90
17639;DHT22;8938;53.546;9.954;2023-01-06T01:02:17;11.30;99.90
17639;DHT22;8938;53.546;9.954;2023-01-06T01:04:43;11.30;99.90
17639;DHT22;8938;53.546;9.954;2023-01-06T01:07:08;11.20;99.90
17639;DHT22;8938;53.546;9.954;2023-01-06T01:09:34;11.30;99.90
17639;DHT22;8938;53.546;9.954;2023-01-06T01:12:00;11.30;99.90
17639;DHT22;8938;53.546;9.954;2023-01-06T01:14:47;11.30;99.90
17639;DHT22;8938;53.546;9.954;2023-01-06T01:17:22;11.20;99.90
17639;DHT22;8938;53.546;9.954;2023-01-06T01:19:49;11.20;99.90
17639;DHT22;8938;53.546;9.954;2023-01-06T01:22:16;11.00;99.90
17639;DHT22;8938;53.546;9.954;2023-01-06T01:24:41;10.90;99.90
17639;DHT22;8938;53.546;9.954;2023-01-06T01:27:07;10.80;99.90
17639;DHT22;8938;53.546;9.954;2023-01-06T01:29:33;10.80;99.90
17639;DHT22;8938;53.546;9.954;2023-01-06T01:31:59;10.90;99.90
17639;DHT22;8938;53.546;9.954;2023-01-06T01:34:25;10.90;99.90
17639;DHT22;8938;53.546;9.954;2023-01-06T01:36:51;10.90;99.90
17639;DHT22;8938;53.546;9.954;2023-01-06T01:39:20;10.80;99.90
17639;DHT22;8938;53.546;9.954;2023-01-06T01:41:46;10.70;99.90
17639;DHT22;8938;53.546;9.954;2023-01-06T01:47:20;10.80;99.90
17639;DHT22;8938;53.546;9.954;2023-01-06T01:49:51;10.80;99.90
17639;DHT22;8938;53.546;9.954;2023-01-06T01:52:18;10.80;99.90
17639;DHT22;8938;53.546;9.954;2023-01-06T01:54:45;10.80;99.90
17639;DHT22;8938;53.546;9.954;2023-01-06T01:57:15;10.80;99.90
17639;DHT22;8938;53.546;9.954;2023-01-06T01:59:44;10.80;99.90
17639;DHT22;8938;53.546;9.954;2023-01-06T02:02:12;10.80;99.90
17639;DHT22;8938;53.546;9.954;2023-01-06T02:04:41;10.80;99.90
17639;DHT22;8938;53.546;9.954;2023-01-06T02:07:08;10.80;99.90
17639;DHT22;8938;53.546;9.954;2023-01-06T02:09:56;10.90;99.90
17639;DHT22;8938;53.546;9.954;2023-01-06T02:12:24;10.90;99.90
17639;DHT22;8938;53.546;9.954;2023-01-06T02:14:49;10.90;99.90
17639;DHT22;8938;53.546;9.954;2023-01-06T02:17:38;10.90;99.90
17639;DHT22;8938;53.546;9.954;2023-01-06T02:32:00;11.30;99.90
17639;DHT22;8938;53.546;9.954;2023-01-06T02:34:30;11.20;99.90
17639;DHT22;8938;53.546;9.954;2023-01-06T02:39:55;11.30;99.90
17639;DHT22;8938;53.546;9.954;2023-01-06T02:45:19;11.30;99.90
17639;DHT22;8938;53.546;9.954;2023-01-06T02:50:32;11.30;99.90
17639;DHT22;8938;53.546;9.954;2023-01-06T02:55:50;11.20;99.90
17639;DHT22;8938;53.546;9.954;2023-01-06T03:00:55;11.30;99.90
17639;DHT22;8938;53.546;9.954;2023-01-06T03:03:24;11.40;99.90
17639;DHT22;8938;53.546;9.954;2023-01-06T03:05:56;11.40;99.90
17639;DHT22;8938;53.546;9.954;2023-01-06T03:08:26;11.50;99.90
17639;DHT22;8938;53.546;9.954;2023-01-06T03:13:42;11.50;99.90
17639;DHT22;8938;53.546;9.954;2023-01-06T03:16:09;11.70;99.90
17639;DHT22;8938;53.546;9.954;2023-01-06T03:18:36;11.70;99.90
17639;DHT22;8938;53.546;9.954;2023-01-06T03:21:06;11.70;99.90
17639;DHT22;8938;53.546;9.954;2023-01-06T03:23:33;11.70;99.90
17639;DHT22;8938;53.546;9.954;2023-01-06T03:25:59;11.70;99.90
17639;DHT22;8938;53.546;9.954;2023-01-06T03:31:11;11.60;99.90
17639;DHT22;8938;53.546;9.954;2023-01-06T03:40:08;11.60;99.90
17639;DHT22;8938;53.546;9.954;2023-01-06T03:45:40;11.60;99.90
17639;DHT22;8938;53.546;9.954;2023-01-06T03:50:52;11.80;99.90
17639;DHT22;8938;53.546;9.954;2023-01-06T03:53:48;11.90;99.90
17639;DHT22;8938;53.546;9.954;2023-01-06T03:58:49;12.00;99.90
17639;DHT22;8938;53.546;9.954;2023-01-06T04:01:16;12.10;99.90
17639;DHT22;8938;53.546;9.954;2023-01-06T04:03:46;12.20;99.90
17639;DHT22;8938;53.546;9.954;2023-01-06T04:06:12;12.20;99.90
17639;DHT22;8938;53.546;9.954;2023-01-06T04:08:37;12.30;99.90
17639;DHT22;8938;53.546;9.954;2023-01-06T04:23:12;12.90;99.90
17639;DHT22;8938;53.546;9.954;2023-01-06T04:28:04;12.90;99.90
17639;DHT22;8938;53.546;9.954;2023-01-06T04:30:29;12.90;99.90
17639;DHT22;8938;53.546;9.954;2023-01-06T04:32:55;13.00;99.90
17639;DHT22;8938;53.546;9.954;2023-01-06T04:35:20;13.00;99.90
17639;DHT22;8938;53.546;9.954;2023-01-06T04:37:46;13.00;99.90
17639;DHT22;8938;53.546;9.954;2023-01-06T04:40:12;13.10;99.90
17639;DHT22;8938;53.546;9.954;2023-01-06T04:42:37;13.10;99.90
17639;DHT22;8938;53.546;9.954;2023-01-06T04:45:21;13.10;99.90
17639;DHT22;8938;53.546;9.954;2023-01-06T04:47:47;13.10;99.90
17639;DHT22;8938;53.546;9.954;2023-01-06T04:50:12;13.20;99.90
17639;DHT22;8938;53.546;9.954;2023-01-06T04:52:38;13.20;99.90
17639;DHT22;8938;53.546;9.954;2023-01-06T04:55:04;13.30;99.90
17639;DHT22;8938;53.546;9.954;2023-01-06T04:57:29;13.20;99.90
17639;DHT22;8938;53.546;9.954;2023-01-06T04:59:55;13.20;99.90
17639;DHT22;8938;53.546;9.954;2023-01-06T05:02:20;13.10;99.90
17639;DHT22;8938;53.546;9.954;2023-01-06T05:04:46;13.10;99.90
17639;DHT22;8938;53.546;9.954;2023-01-06T05:07:11;13.10;99.90
17639;DHT22;8938;53.546;9.954;2023-01-06T05:09:37;13.00;99.90
17639;DHT22;8938;53.546;9.954;2023-01-06T05:12:03;13.10;99.90
17639;DHT22;8938;53.546;9.954;2023-01-06T05:14:28;13.10;99.90
17639;DHT22;8938;53.546;9.954;2023-01-06T05:16:54;13.10;99.90
17639;DHT22;8938;53.546;9.954;2023-01-06T05:21:45;13.20;99.90
17639;DHT22;8938;53.546;9.954;2023-01-06T05:24:11;12.80;99.90
17639;DHT22;8938;53.546;9.954;2023-01-06T05:26:36;13.10;99.90
17639;DHT22;8938;53.546;9.954;2023-01-06T05:29:02;13.00;99.90
17639;DHT22;8938;53.546;9.954;2023-01-06T05:31:27;13.10;99.90
17639;DHT22;8938;53.546;9.954;2023-01-06T05:33:54;13.10;99.90
17639;DHT22;8938;53.546;9.954;2023-01-06T05:36:19;13.10;99.90
17639;DHT22;8938;53.546;9.954;2023-01-06T05:38:51;13.20;99.90
17639;DHT22;8938;53.546;9.954;2023-01-06T05:41:16;13.20;99.90
17639;DHT22;8938;53.546;9.954;2023-01-06T06:22:52;13.30;99.90
17639;DHT22;8938;53.546;9.954;2023-01-06T06:27:44;13.30;99.90
17639;DHT22;8938;53.546;9.954;2023-01-06T06:30:10;13.20;99.90
17639;DHT22;8938;53.546;9.954;2023-01-06T06:39:53;13.30;99.90
17639;DHT22;8938;53.546;9.954;2023-01-06T06:44:45;13.30;99.90
17639;DHT22;8938;53.546;9.954;2023-01-06T06:49:36;13.30;99.90
17639;DHT22;8938;53.546;9.954;2023-01-06T06:54:28;13.40;99.90
17639;DHT22;8938;53.546;9.954;2023-01-06T06:56:53;13.40;99.90
17639;DHT22;8938;53.546;9.954;2023-01-06T06:59:19;13.30;99.90
17639;DHT22;8938;53.546;9.954;2023-01-06T07:01:44;13.40;99.90
17639;DHT22;8938;53.546;9.954;2023-01-06T07:06:36;13.30;99.90
17639;DHT22;8938;53.546;9.954;2023-01-06T07:09:02;13.40;99.90
17639;DHT22;8938;53.546;9.954;2023-01-06T07:16:20;13.30;99.90
17639;DHT22;8938;53.546;9.954;2023-01-06T07:18:47;13.40;99.90
17639;DHT22;8938;53.546;9.954;2023-01-06T07:21:13;13.30;99.90
17639;DHT22;8938;53.546;9.954;2023-01-06T07:23:38;13.30;99.90
17639;DHT22;8938;53.546;9.954;2023-01-06T07:26:04;13.30;99.90
17639;DHT22;8938;53.546;9.954;2023-01-06T07:28:31;13.30;99.90
17639;DHT22;8938;53.546;9.954;2023-01-06T07:33:23;13.20;99.90
17639;DHT22;8938;53.546;9.954;2023-01-06T07:35:52;13.40;99.90
17639;DHT22;8938;53.546;9.954;2023-01-06T07:40:44;13.40;99.90
17639;DHT22;8938;53.546;9.954;2023-01-06T07:43:10;13.40;99.90
17639;DHT22;8938;53.546;9.954;2023-01-06T07:48:03;13.40;99.90
17639;DHT22;8938;53.546;9.954;2023-01-06T07:50:29;13.40;99.90
17639;DHT22;8938;53.546;9.954;2023-01-06T07:52:58;13.40;99.90
17639;DHT22;8938;53.546;9.954;2023-01-06T08:12:26;13.50;99.90
17639;DHT22;8938;53.546;9.954;2023-01-06T08:14:52;13.50;99.90
17639;DHT22;8938;53.546;9.954;2023-01-06T08:17:17;13.50;99.90
17639;DHT22;8938;53.546;9.954;2023-01-06T08:29:27;13.60;99.90
17639;DHT22;8938;53.546;9.954;2023-01-06T08:31:52;13.50;99.90
17639;DHT22;8938;53.546;9.954;2023-01-06T08:34:18;13.50;99.90
17639;DHT22;8938;53.546;9.954;2023-01-06T08:36:44;13.50;99.90
17639;DHT22;8938;53.546;9.954;2023-01-06T08:39:12;13.50;99.90
17639;DHT22;8938;53.546;9.954;2023-01-06T08:41:38;13.50;99.90
17639;DHT22;8938;53.546;9.954;2023-01-06T08:44:05;13.50;99.90
17639;DHT22;8938;53.546;9.954;2023-01-06T08:48:56;13.40;99.90
17639;DHT22;8938;53.546;9.954;2023-01-06T08:51:22;13.40;99.90
17639;DHT22;8938;53.546;9.954;2023-01-06T08:53:49;13.40;99.90
17639;DHT22;8938;53.546;9.954;2023-01-06T08:56:18;13.30;99.90
17639;DHT22;8938;53.546;9.954;2023-01-06T08:58:55;13.20;99.90
17639;DHT22;8938;53.546;9.954;2023-01-06T09:01:24;13.30;99.90
17639;DHT22;8938;53.546;9.954;2023-01-06T09:03:50;13.30;99.90
17639;DHT22;8938;53.546;9.954;2023-01-06T09:06:17;13.30;99.90
17639;DHT22;8938;53.546;9.954;2023-01-06T09:08:43;13.30;99.90
17639;DHT22;8938;53.546;9.954;2023-01-06T09:11:11;13.30;99.90
17639;DHT22;8938;53.546;9.954;2023-01-06T09:13:37;13.30;99.90
17639;DHT22;8938;53.546;9.954;2023-01-06T09:16:06;13.30;99.90
17639;DHT22;8938;53.546;9.954;2023-01-06T09:18:32;13.20;99.90
17639;DHT22;8938;53.546;9.954;2023-01-06T09:20:58;13.30;99.90
17639;DHT22;8938;53.546;9.954;2023-01-06T09:23:23;13.20;99.90
17639;DHT22;8938;53.546;9.954;2023-01-06T09:25:49;13.20;99.90
17639;DHT22;8938;53.546;9.954;2023-01-06T09:28:15;13.30;99.90
17639;DHT22;8938;53.546;9.954;2023-01-06T09:30:41;13.20;99.90
17639;DHT22;8938;53.546;9.954;2023-01-06T09:33:06;13.30;99.90
17639;DHT22;8938;53.546;9.954;2023-01-06T09:35:32;13.20;99.90
17639;DHT22;8938;53.546;9.954;2023-01-06T09:37:58;13.20;99.90
17639;DHT22;8938;53.546;9.954;2023-01-06T09:40:43;13.10;99.90
17639;DHT22;8938;53.546;9.954;2023-01-06T09:43:49;13.20;99.90
17639;DHT22;8938;53.546;9.954;2023-01-06T09:46:20;13.20;99.90
17639;DHT22;8938;53.546;9.954;2023-01-06T09:51:44;13.10;99.90
17639;DHT22;8938;53.546;9.954;2023-01-06T09:54:17;13.20;99.90
17639;DHT22;8938;53.546;9.954;2023-01-06T09:56:47;13.20;99.90
17639;DHT22;8938;53.546;9.954;2023-01-06T09:59:55;13.10;99.90
17639;DHT22;8938;53.546;9.954;2023-01-06T10:02:23;13.10;99.90
17639;DHT22;8938;53.546;9.954;2023-01-06T10:04:50;13.20;99.90
17639;DHT22;8938;53.546;9.954;2023-01-06T10:13:57;13.20;99.90
17639;DHT22;8938;53.546;9.954;2023-01-06T10:16:30;13.20;99.90
17639;DHT22;8938;53.546;9.954;2023-01-06T10:21:49;13.30;99.90
17639;DHT22;8938;53.546;9.954;2023-01-06T10:29:44;13.30;99.90
17639;DHT22;8938;53.546;9.954;2023-01-06T10:32:15;13.40;99.90
17639;DHT22;8938;53.546;9.954;2023-01-06T10:34:47;13.40;99.90
17639;DHT22;8938;53.546;9.954;2023-01-06T10:37:18;13.50;99.90
17639;DHT22;8938;53.546;9.954;2023-01-06T10:39:48;13.50;99.90
17639;DHT22;8938;53.546;9.954;2023-01-06T10:42:41;13.40;99.90
17639;DHT22;8938;53.546;9.954;2023-01-06T10:45:23;13.50;99.90
17639;DHT22;8938;53.546;9.954;2023-01-06T10:47:50;13.40;99.90
17639;DHT22;8938;53.546;9.954;2023-01-06T10:50:17;13.40;99.90
17639;DHT22;8938;53.546;9.954;2023-01-06T10:52:44;13.40;99.90
17639;DHT22;8938;53.546;9.954;2023-01-06T10:57:51;13.40;99.90
17639;DHT22;8938;53.546;9.954;2023-01-06T11:00:20;13.50;99.90
17639;DHT22;8938;53.546;9.954;2023-01-06T11:02:51;13.60;99.90
17639;DHT22;8938;53.546;9.954;2023-01-06T11:05:20;13.60;99.90
17639;DHT22;8938;53.546;9.954;2023-01-06T11:08:05;13.70;99.90
17639;DHT22;8938;53.546;9.954;2023-01-06T11:10:50;13.70;99.90
17639;DHT22;8938;53.546;9.954;2023-01-06T11:13:35;13.80;99.90
17639;DHT22;8938;53.546;9.954;2023-01-06T11:16:04;13.80;99.90
17639;DHT22;8938;53.546;9.954;2023-01-06T11:18:32;13.70;99.90
17639;DHT22;8938;53.546;9.954;2023-01-06T11:21:11;13.70;99.90
17639;DHT22;8938;53.546;9.954;2023-01-06T11:23:39;13.70;99.90
17639;DHT22;8938;53.546;9.954;2023-01-06T11:26:16;13.70;99.90
17639;DHT22;8938;53.546;9.954;2023-01-06T11:28:44;13.60;99.90
17639;DHT22;8938;53.546;9.954;2023-01-06T11:31:21;13.60;99.90
17639;DHT22;8938;53.546;9.954;2023-01-06T11:33:55;13.60;99.90
17639;DHT22;8938;53.546;9.954;2023-01-06T11:36:23;13.60;99.90
17639;DHT22;8938;53.546;9.954;2023-01-06T11:39:12;13.70;99.90
17639;DHT22;8938;53.546;9.954;2023-01-06T11:41:50;13.70;99.90
17639;DHT22;8938;53.546;9.954;2023-01-06T11:44:29;13.70;99.90
17639;DHT22;8938;53.546;9.954;2023-01-06T11:47:18;13.70;99.90
17639;DHT22;8938;53.546;9.954;2023-01-06T11:49:50;13.70;99.90
17639;DHT22;8938;53.546;9.954;2023-01-06T11:52:20;13.60;99.90
17639;DHT22;8938;53.546;9.954;2023-01-06T11:54:56;13.60;99.90
17639;DHT22;8938;53.546;9.954;2023-01-06T12:05:58;13.40;99.90
17639;DHT22;8938;53.546;9.954;2023-01-06T12:08:30;13.40;99.90
17639;DHT22;8938;53.546;9.954;2023-01-06T12:13:57;13.50;99.90
17639;DHT22;8938;53.546;9.954;2023-01-06T12:16:41;13.60;99.90
17639;DHT22;8938;53.546;9.954;2023-01-06T12:19:29;13.70;99.90
17639;DHT22;8938;53.546;9.954;2023-01-06T12:21:57;13.70;99.90
17639;DHT22;8938;53.546;9.954;2023-01-06T12:24:26;13.70;99.90
17639;DHT22;8938;53.546;9.954;2023-01-06T12:26:53;13.70;99.90
17639;DHT22;8938;53.546;9.954;2023-01-06T12:29:20;13.70;99.90
17639;DHT22;8938;53.546;9.954;2023-01-06T12:32:11;13.70;99.90
17639;DHT22;8938;53.546;9.954;2023-01-06T12:34:42;13.70;99.90
17639;DHT22;8938;53.546;9.954;2023-01-06T12:37:49;13.60;99.90
17639;DHT22;8938;53.546;9.954;2023-01-06T12:40:35;13.50;99.90
17639;DHT22;8938;53.546;9.954;2023-01-06T12:43:16;13.50;99.90
17639;DHT22;8938;53.546;9.954;2023-01-06T12:46:04;13.60;99.90
17639;DHT22;8938;53.546;9.954;2023-01-06T12:48:42;13.60;99.90
17639;DHT22;8938;53.546;9.954;2023-01-06T12:51:14;13.70;99.90
17639;DHT22;8938;53.546;9.954;2023-01-06T12:53:44;13.90;99.90
17639;DHT22;8938;53.546;9.954;2023-01-06T12:59:32;13.90;99.90
17639;DHT22;8938;53.546;9.954;2023-01-06T13:07:56;13.60;99.90
17639;DHT22;8938;53.546;9.954;2023-01-06T13:10:32;13.50;99.90
17639;DHT22;8938;53.546;9.954;2023-01-06T13:13:27;13.50;99.90
17639;DHT22;8938;53.546;9.954;2023-01-06T13:16:00;13.50;99.90
17639;DHT22;8938;53.546;9.954;2023-01-06T13:18:55;13.50;99.90
17639;DHT22;8938;53.546;9.954;2023-01-06T13:21:23;13.50;99.90
17639;DHT22;8938;53.546;9.954;2023-01-06T13:23:58;13.50;99.90
17639;DHT22;8938;53.546;9.954;2023-01-06T13:29:02;13.50;99.90
17639;DHT22;8938;53.546;9.954;2023-01-06T13:40:18;13.70;99.90
17639;DHT22;8938;53.546;9.954;2023-01-06T13:42:56;13.80;99.90
17639;DHT22;8938;53.546;9.954;2023-01-06T13:45:37;13.80;99.90
17639;DHT22;8938;53.546;9.954;2023-01-06T13:48:05;13.90;99.90
17639;DHT22;8938;53.546;9.954;2023-01-06T13:50:35;13.90;99.90
17639;DHT22;8938;53.546;9.954;2023-01-06T13:53:02;13.80;99.90
17639;DHT22;8938;53.546;9.954;2023-01-06T13:55:32;13.80;99.90
17639;DHT22;8938;53.546;9.954;2023-01-06T13:58:43;13.80;99.90
17639;DHT22;8938;53.546;9.954;2023-01-06T14:01:29;13.90;99.90
17639;DHT22;8938;53.546;9.954;2023-01-06T14:06:56;13.80;99.90
17639;DHT22;8938;53.546;9.954;2023-01-06T14:09:22;13.60;99.90
17639;DHT22;8938;53.546;9.954;2023-01-06T14:11:48;13.60;99.90
17639;DHT22;8938;53.546;9.954;2023-01-06T14:14:25;13.80;99.90
17639;DHT22;8938;53.546;9.954;2023-01-06T14:16:55;13.60;99.90
17639;DHT22;8938;53.546;9.954;2023-01-06T14:19:30;13.60;99.90
17639;DHT22;8938;53.546;9.954;2023-01-06T14:22:23;13.60;99.90
17639;DHT22;8938;53.546;9.954;2023-01-06T14:24:56;13.60;99.90
17639;DHT22;8938;53.546;9.954;2023-01-06T14:30:23;13.60;99.90
17639;DHT22;8938;53.546;9.954;2023-01-06T14:35:21;13.60;99.90
17639;DHT22;8938;53.546;9.954;2023-01-06T14:38:03;13.60;99.90
17639;DHT22;8938;53.546;9.954;2023-01-06T14:40:39;13.60;99.90
17639;DHT22;8938;53.546;9.954;2023-01-06T14:43:32;13.70;99.90
17639;DHT22;8938;53.546;9.954;2023-01-06T14:46:07;13.60;99.90
17639;DHT22;8938;53.546;9.954;2023-01-06T14:48:43;13.60;99.90
17639;DHT22;8938;53.546;9.954;2023-01-06T14:51:16;13.50;99.90
17639;DHT22;8938;53.546;9.954;2023-01-06T14:53:46;13.50;99.90
17639;DHT22;8938;53.546;9.954;2023-01-06T14:56:19;13.50;99.90
17639;DHT22;8938;53.546;9.954;2023-01-06T14:58:45;13.50;99.90
17639;DHT22;8938;53.546;9.954;2023-01-06T15:01:23;13.40;99.90
17639;DHT22;8938;53.546;9.954;2023-01-06T15:03:58;13.30;99.90
17639;DHT22;8938;53.546;9.954;2023-01-06T15:06:28;13.30;99.90
17639;DHT22;8938;53.546;9.954;2023-01-06T15:08:54;13.30;99.90
17639;DHT22;8938;53.546;9.954;2023-01-06T15:11:40;13.20;99.90
17639;DHT22;8938;53.546;9.954;2023-01-06T15:14:28;13.20;99.90
17639;DHT22;8938;53.546;9.954;2023-01-06T15:16:57;13.20;99.90
17639;DHT22;8938;53.546;9.954;2023-01-06T15:19:24;13.20;99.90
17639;DHT22;8938;53.546;9.954;2023-01-06T15:21:51;13.20;99.90
17639;DHT22;8938;53.546;9.954;2023-01-06T15:24:20;13.20;99.90
17639;DHT22;8938;53.546;9.954;2023-01-06T15:26:50;13.00;99.90
17639;DHT22;8938;53.546;9.954;2023-01-06T15:29:21;13.00;99.90
17639;DHT22;8938;53.546;9.954;2023-01-06T15:31:49;12.90;99.90
17639;DHT22;8938;53.546;9.954;2023-01-06T15:34:19;13.00;99.90
17639;DHT22;8938;53.546;9.954;2023-01-06T15:36:49;13.00;99.90
17639;DHT22;8938;53.546;9.954;2023-01-06T15:39:24;13.00;99.90
17639;DHT22;8938;53.546;9.954;2023-01-06T15:41:50;13.00;99.90
17639;DHT22;8938;53.546;9.954;2023-01-06T15:44:29;12.90;99.90
17639;DHT22;8938;53.546;9.954;2023-01-06T15:47:05;13.00;99.90
17639;DHT22;8938;53.546;9.954;2023-01-06T15:49:35;12.90;99.90
17639;DHT22;8938;53.546;9.954;2023-01-06T15:52:33;13.00;99.90
17639;DHT22;8938;53.546;9.954;2023-01-06T15:55:02;12.90;99.90
17639;DHT22;8938;53.546;9.954;2023-01-06T15:57:35;12.90;99.90
17639;DHT22;8938;53.546;9.954;2023-01-06T16:00:06;12.80;99.90
17639;DHT22;8938;53.546;9.954;2023-01-06T16:02:32;12.80;99.90
17639;DHT22;8938;53.546;9.954;2023-01-06T16:04:59;12.90;99.90
17639;DHT22;8938;53.546;9.954;2023-01-06T16:07:40;12.80;99.90
17639;DHT22;8938;53.546;9.954;2023-01-06T16:10:33;12.80;99.90
17639;DHT22;8938;53.546;9.954;2023-01-06T16:13:22;12.80;99.90
17639;DHT22;8938;53.546;9.954;2023-01-06T16:16:02;12.90;99.90
17639;DHT22;8938;53.546;9.954;2023-01-06T16:18:32;12.70;99.90
17639;DHT22;8938;53.546;9.954;2023-01-06T16:20:59;12.70;99.90
17639;DHT22;8938;53.546;9.954;2023-01-06T16:23:36;12.70;99.90
17639;DHT22;8938;53.546;9.954;2023-01-06T16:26:12;12.60;99.90
17639;DHT22;8938;53.546;9.954;2023-01-06T16:28:51;12.50;99.90
17639;DHT22;8938;53.546;9.954;2023-01-06T16:31:46;12.50;99.90
17639;DHT22;8938;53.546;9.954;2023-01-06T16:36:44;12.50;99.90
17639;DHT22;8938;53.546;9.954;2023-01-06T16:39:09;12.30;99.90
17639;DHT22;8938;53.546;9.954;2023-01-06T16:41:35;12.30;99.90
17639;DHT22;8938;53.546;9.954;2023-01-06T16:44:00;12.50;99.90
17639;DHT22;8938;53.546;9.954;2023-01-06T16:46:26;12.50;99.90
17639;DHT22;8938;53.546;9.954;2023-01-06T16:49:00;12.40;99.90
17639;DHT22;8938;53.546;9.954;2023-01-06T16:51:29;12.60;99.90
17639;DHT22;8938;53.546;9.954;2023-01-06T16:53:55;12.60;99.90
17639;DHT22;8938;53.546;9.954;2023-01-06T16:56:21;12.50;99.90
17639;DHT22;8938;53.546;9.954;2023-01-06T16:58:48;12.40;99.90
17639;DHT22;8938;53.546;9.954;2023-01-06T17:01:17;12.50;99.90
17639;DHT22;8938;53.546;9.954;2023-01-06T17:03:45;12.40;99.90
17639;DHT22;8938;53.546;9.954;2023-01-06T17:06:19;12.50;99.90
17639;DHT22;8938;53.546;9.954;2023-01-06T17:08:46;12.30;99.90
17639;DHT22;8938;53.546;9.954;2023-01-06T17:11:15;12.50;99.90
17639;DHT22;8938;53.546;9.954;2023-01-06T17:16:18;12.40;99.90
17639;DHT22;8938;53.546;9.954;2023-01-06T17:19:01;12.40;99.90
17639;DHT22;8938;53.546;9.954;2023-01-06T17:21:32;11.90;99.90
17639;DHT22;8938;53.546;9.954;2023-01-06T17:24:24;12.90;99.90
17639;DHT22;8938;53.546;9.954;2023-01-06T17:29:21;13.40;99.90
17639;DHT22;8938;53.546;9.954;2023-01-06T17:31:50;11.70;99.90
17639;DHT22;8938;53.546;9.954;2023-01-06T17:34:20;12.20;99.90
17639;DHT22;8938;53.546;9.954;2023-01-06T17:36:47;12.30;99.90
17639;DHT22;8938;53.546;9.954;2023-01-06T17:39:23;12.30;99.90
17639;DHT22;8938;53.546;9.954;2023-01-06T17:44:44;12.30;99.90
17639;DHT22;8938;53.546;9.954;2023-01-06T17:49:52;12.20;99.90
17639;DHT22;8938;53.546;9.954;2023-01-06T17:52:22;12.20;99.90
17639;DHT22;8938;53.546;9.954;2023-01-06T17:54:53;12.20;99.90
17639;DHT22;8938;53.546;9.954;2023-01-06T17:57:39;12.30;99.90
17639;DHT22;8938;53.546;9.954;2023-01-06T18:00:26;12.20;99.90
17639;DHT22;8938;53.546;9.954;2023-01-06T18:02:57;12.20;99.90
17639;DHT22;8938;53.546;9.954;2023-01-06T18:07:51;12.20;99.90
17639;DHT22;8938;53.546;9.954;2023-01-06T18:10:17;12.20;99.90
17639;DHT22;8938;53.546;9.954;2023-01-06T18:12:43;12.10;99.90
17639;DHT22;8938;53.546;9.954;2023-01-06T18:15:29;12.20;99.90
17639;DHT22;8938;53.546;9.954;2023-01-06T18:17:56;12.10;99.90
17639;DHT22;8938;53.546;9.954;2023-01-06T18:20:24;12.00;99.90
17639;DHT22;8938;53.546;9.954;2023-01-06T18:22:50;12.00;99.90
17639;DHT22;8938;53.546;9.954;2023-01-06T18:25:18;12.00;99.90
17639;DHT22;8938;53.546;9.954;2023-01-06T18:27:49;12.00;99.90
17639;DHT22;8938;53.546;9.954;2023-01-06T18:30:18;11.90;99.90
17639;DHT22;8938;53.546;9.954;2023-01-06T18:32:46;11.90;99.90
17639;DHT22;8938;53.546;9.954;2023-01-06T18:35:24;11.90;99.90
17639;DHT22;8938;53.546;9.954;2023-01-06T18:37:52;11.90;99.90
17639;DHT22;8938;53.546;9.954;2023-01-06T18:40:22;12.00;99.90
17639;DHT22;8938;53.546;9.954;2023-01-06T18:42:49;12.00;99.90
17639;DHT22;8938;53.546;9.954;2023-01-06T18:45:33;12.00;99.90
17639;DHT22;8938;53.546;9.954;2023-01-06T18:48:10;12.00;99.90
17639;DHT22;8938;53.546;9.954;2023-01-06T18:50:44;12.00;99.90
17639;DHT22;8938;53.546;9.954;2023-01-06T18:55:40;11.90;99.90
17639;DHT22;8938;53.546;9.954;2023-01-06T19:00:53;11.80;99.90
17639;DHT22;8938;53.546;9.954;2023-01-06T19:03:35;11.80;99.90
17639;DHT22;8938;53.546;9.954;2023-01-06T19:08:39;11.90;99.90
17639;DHT22;8938;53.546;9.954;2023-01-06T19:11:12;11.90;99.90
17639;DHT22;8938;53.546;9.954;2023-01-06T19:13:40;11.80;99.90
17639;DHT22;8938;53.546;9.954;2023-01-06T19:16:31;11.80;99.90
17639;DHT22;8938;53.546;9.954;2023-01-06T19:19:27;11.70;99.90
17639;DHT22;8938;53.546;9.954;2023-01-06T19:22:01;11.70;99.90
17639;DHT22;8938;53.546;9.954;2023-01-06T19:24:37;11.70;99.90
17639;DHT22;8938;53.546;9.954;2023-01-06T19:27:06;11.70;99.90
17639;DHT22;8938;53.546;9.954;2023-01-06T19:29:44;11.80;99.90
17639;DHT22;8938;53.546;9.954;2023-01-06T19:32:13;11.80;99.90
17639;DHT22;8938;53.546;9.954;2023-01-06T19:34:39;11.80;99.90
17639;DHT22;8938;53.546;9.954;2023-01-06T19:37:14;11.70;99.90
17639;DHT22;8938;53.546;9.954;2023-01-06T19:39:43;11.60;99.90
17639;DHT22;8938;53.546;9.954;2023-01-06T19:42:22;11.70;99.90
17639;DHT22;8938;53.546;9.954;2023-01-06T19:44:53;11.70;99.90
17639;DHT22;8938;53.546;9.954;2023-01-06T19:47:31;11.60;99.90
17639;DHT22;8938;53.546;9.954;2023-01-06T19:50:15;11.70;99.90
17639;DHT22;8938;53.546;9.954;2023-01-06T19:52:41;11.60;99.90
17639;DHT22;8938;53.546;9.954;2023-01-06T19:57:47;11.70;99.90
17639;DHT22;8938;53.546;9.954;2023-01-06T20:00:24;11.60;99.90
17639;DHT22;8938;53.546;9.954;2023-01-06T20:02:51;11.70;99.90
17639;DHT22;8938;53.546;9.954;2023-01-06T20:05:18;11.80;99.90
17639;DHT22;8938;53.546;9.954;2023-01-06T20:07:44;11.80;99.90
17639;DHT22;8938;53.546;9.954;2023-01-06T20:10:10;11.80;99.90
17639;DHT22;8938;53.546;9.954;2023-01-06T20:12:35;11.80;99.90
17639;DHT22;8938;53.546;9.954;2023-01-06T20:15:01;11.80;99.90
17639;DHT22;8938;53.546;9.954;2023-01-06T20:17:27;11.80;99.90
17639;DHT22;8938;53.546;9.954;2023-01-06T20:19:52;11.60;99.90
17639;DHT22;8938;53.546;9.954;2023-01-06T20:22:18;11.80;99.90